Time;durP1;ratioP1;P1;durP2;ratioP2;P2;SDS_P1;SDS_P2;PMS_P1;PMS_P2;Temp;Humidity;BMP_temperature;BMP_pressure;BME280_temperature;BME280_humidity;BME280_pressure;Samples;Min_cycle;Max_cycle;Signal;HPM_P1;HPM_P2
2024/01/02 00:02:12;;;;;;;23.40;13.48;;;2.00;99.90;;;;;;5075522;28;20048;-78
2024/01/02 00:04:37;;;;;;;32.90;14.20;;;2.00;99.90;;;;;;5075467;28;20024;-80
2024/01/02 00:07:03;;;;;;;28.63;14.13;;;2.00;99.90;;;;;;5057442;28;20041;-80
2024/01/02 00:09:29;;;;;;;29.58;14.10;;;2.00;99.90;;;;;;5059400;28;20025;-79
2024/01/02 00:11:54;;;;;;;28.55;13.48;;;2.00;99.90;;;;;;5057424;28;20086;-79
2024/01/02 00:14:20;;;;;;;26.83;13.15;;;2.00;99.90;;;;;;5057468;28;20025;-78
2024/01/02 00:16:45;;;;;;;29.70;14.13;;;2.00;99.90;;;;;;5075404;28;20082;-78
2024/01/02 00:19:11;;;;;;;22.27;12.32;;;2.00;99.90;;;;;;5073916;28;20549;-78
2024/01/02 00:21:37;;;;;;;25.42;12.40;;;2.00;99.90;;;;;;5075030;28;20104;-78
2024/01/02 00:24:03;;;;;;;26.60;13.60;;;2.00;99.90;;;;;;5057243;28;20024;-79
2024/01/02 00:26:29;;;;;;;31.33;13.38;;;2.00;99.90;;;;;;5064810;28;20044;-78
2024/01/02 00:28:54;;;;;;;25.85;11.88;;;2.00;99.90;;;;;;5075037;28;20087;-77
2024/01/02 00:31:20;;;;;;;26.45;12.75;;;2.00;99.90;;;;;;5057081;28;20074;-79
2024/01/02 00:33:46;;;;;;;27.60;12.73;;;2.00;99.90;;;;;;5040593;28;20056;-78
2024/01/02 00:36:12;;;;;;;30.23;12.20;;;2.00;99.90;;;;;;5037362;28;20017;-79
2024/01/02 00:38:38;;;;;;;21.55;11.50;;;2.10;99.90;;;;;;5036736;28;20024;-80
2024/01/02 00:41:04;;;;;;;23.95;12.00;;;2.10;99.90;;;;;;5037129;28;20471;-80
2024/01/02 00:43:30;;;;;;;23.35;10.13;;;2.10;99.90;;;;;;5054545;28;20574;-79
2024/01/02 00:45:59;;;;;;;19.52;9.88;;;2.10;99.90;;;;;;5054842;28;20116;-79
2024/01/02 00:48:25;;;;;;;22.13;11.38;;;2.10;99.90;;;;;;5054255;28;20025;-80
2024/01/02 00:50:51;;;;;;;22.55;11.80;;;2.20;99.90;;;;;;5053600;28;20068;-79
2024/01/02 00:53:17;;;;;;;24.02;10.90;;;2.20;99.90;;;;;;5054348;28;20041;-79
2024/01/02 00:55:43;;;;;;;25.42;11.52;;;2.10;99.90;;;;;;5053727;28;20027;-79
2024/01/02 00:58:08;;;;;;;24.60;12.07;;;2.20;99.90;;;;;;5036143;28;20036;-79
2024/01/02 01:00:34;;;;;;;21.60;12.00;;;2.20;99.90;;;;;;5054507;28;20025;-79
2024/01/02 01:03:00;;;;;;;21.70;10.57;;;2.20;99.90;;;;;;5054463;28;20032;-80
2024/01/02 01:05:26;;;;;;;22.48;10.50;;;2.30;99.90;;;;;;5036407;28;20021;-79
2024/01/02 01:07:52;;;;;;;23.20;11.13;;;2.30;99.90;;;;;;5053709;28;20382;-79
2024/01/02 01:10:17;;;;;;;24.30;10.40;;;2.30;99.90;;;;;;5036213;28;20024;-78
2024/01/02 01:12:45;;;;;;;22.02;11.45;;;2.30;99.90;;;;;;5053076;28;20067;-79
2024/01/02 01:15:10;;;;;;;25.95;10.90;;;2.30;99.90;;;;;;5036102;28;20391;-78
2024/01/02 01:17:37;;;;;;;23.38;11.23;;;2.30;99.90;;;;;;5052715;28;20021;-79
2024/01/02 01:20:03;;;;;;;23.10;11.35;;;2.40;99.90;;;;;;5036277;28;20430;-80
2024/01/02 01:22:29;;;;;;;23.92;11.65;;;2.40;99.90;;;;;;5053978;28;20681;-79
2024/01/02 01:24:54;;;;;;;21.20;10.80;;;2.40;99.90;;;;;;5036253;28;20025;-79
2024/01/02 01:27:20;;;;;;;19.85;11.63;;;2.40;99.90;;;;;;5053956;28;20021;-79
2024/01/02 01:29:46;;;;;;;24.48;11.23;;;2.40;99.90;;;;;;5054160;28;20029;-79
2024/01/02 01:32:12;;;;;;;31.63;13.35;;;2.40;99.90;;;;;;5055522;28;20045;-79
2024/01/02 01:34:38;;;;;;;30.65;14.20;;;2.40;99.90;;;;;;5074097;28;20466;-79
2024/01/02 01:37:04;;;;;;;27.70;13.43;;;2.40;99.90;;;;;;5055909;28;20015;-79
2024/01/02 01:39:30;;;;;;;22.77;10.75;;;2.40;99.90;;;;;;5054149;28;20140;-79
2024/01/02 01:41:55;;;;;;;24.48;10.95;;;2.40;99.90;;;;;;5055547;28;20032;-79
2024/01/02 01:44:21;;;;;;;23.90;10.90;;;2.40;99.90;;;;;;5055768;28;20401;-79
2024/01/02 01:46:47;;;;;;;19.70;10.38;;;2.40;99.90;;;;;;5073512;28;20035;-80
2024/01/02 01:49:14;;;;;;;15.10;8.55;;;2.40;99.90;;;;;;5055773;28;20021;-80
2024/01/02 01:51:41;;;;;;;21.55;8.60;;;2.40;99.90;;;;;;5055533;28;20025;-80
2024/01/02 01:54:09;;;;;;;14.77;8.25;;;2.40;99.90;;;;;;5073173;28;20069;-79
2024/01/02 01:56:35;;;;;;;20.02;8.43;;;2.40;99.90;;;;;;5055646;28;20115;-78
2024/01/02 01:59:04;;;;;;;12.38;8.57;;;2.40;99.90;;;;;;5071994;28;20109;-78
2024/01/02 02:01:31;;;;;;;18.15;8.70;;;2.40;99.90;;;;;;5073247;28;20466;-79
2024/01/02 02:03:58;;;;;;;17.40;8.35;;;2.40;99.90;;;;;;5073376;28;20086;-78
2024/01/02 02:06:24;;;;;;;18.38;9.20;;;2.40;99.90;;;;;;5054735;28;20399;-79
2024/01/02 02:08:53;;;;;;;16.95;8.38;;;2.40;99.90;;;;;;5055178;28;20023;-79
2024/01/02 02:11:20;;;;;;;16.77;7.78;;;2.40;99.90;;;;;;5055155;28;20021;-79
2024/01/02 02:13:49;;;;;;;20.63;8.52;;;2.40;99.90;;;;;;5055086;28;20030;-80
2024/01/02 02:16:15;;;;;;;18.92;9.27;;;2.40;99.90;;;;;;5054863;28;20021;-78
2024/01/02 02:18:41;;;;;;;16.98;8.90;;;2.40;99.90;;;;;;5054932;28;20023;-79
2024/01/02 02:21:06;;;;;;;21.02;10.20;;;2.40;99.90;;;;;;5073219;28;20028;-79
2024/01/02 02:23:32;;;;;;;19.45;10.20;;;2.40;99.90;;;;;;5072916;28;20462;-78
2024/01/02 02:25:58;;;;;;;27.73;12.82;;;2.40;99.90;;;;;;5054538;28;20036;-80
2024/01/02 02:28:24;;;;;;;24.02;12.48;;;2.40;99.90;;;;;;5054910;28;20047;-79
2024/01/02 02:30:49;;;;;;;27.13;12.00;;;2.40;99.90;;;;;;5071602;28;20048;-79
2024/01/02 02:33:15;;;;;;;26.40;12.57;;;2.40;99.90;;;;;;5054875;28;20080;-78
2024/01/02 02:35:41;;;;;;;26.35;12.43;;;2.40;99.90;;;;;;5055682;28;20036;-79
2024/01/02 02:38:06;;;;;;;22.75;10.38;;;2.40;99.90;;;;;;5054850;28;20012;-79
2024/01/02 02:40:32;;;;;;;21.73;10.05;;;2.30;99.90;;;;;;5054908;28;20025;-79
2024/01/02 02:42:58;;;;;;;16.98;9.80;;;2.40;99.90;;;;;;5072355;28;20024;-80
2024/01/02 02:45:24;;;;;;;22.08;10.13;;;2.30;99.90;;;;;;5054601;28;20031;-80
2024/01/02 02:47:50;;;;;;;21.83;9.23;;;2.30;99.90;;;;;;5054467;28;20410;-80
2024/01/02 02:50:16;;;;;;;20.83;9.93;;;2.30;99.90;;;;;;5054689;28;20012;-79
2024/01/02 02:52:41;;;;;;;16.83;9.18;;;2.30;99.90;;;;;;5072567;28;20443;-79
2024/01/02 02:55:08;;;;;;;22.65;10.20;;;2.30;99.90;;;;;;5054564;28;20013;-79
2024/01/02 02:57:33;;;;;;;18.38;8.85;;;2.30;99.90;;;;;;5054566;28;20024;-79
2024/01/02 03:00:00;;;;;;;23.27;9.30;;;2.20;99.90;;;;;;5072594;28;20074;-79
2024/01/02 03:02:25;;;;;;;21.15;10.40;;;2.30;99.90;;;;;;5054617;28;20386;-80
2024/01/02 03:04:51;;;;;;;20.65;10.20;;;2.30;99.90;;;;;;5054412;28;20029;-79
2024/01/02 03:07:17;;;;;;;17.42;9.70;;;2.20;99.90;;;;;;5054522;28;20045;-79
2024/01/02 03:09:44;;;;;;;19.90;10.52;;;2.20;99.90;;;;;;5054232;28;20048;-80
2024/01/02 03:12:12;;;;;;;20.25;9.40;;;2.20;99.90;;;;;;5072214;28;20107;-80
2024/01/02 03:14:38;;;;;;;18.15;9.65;;;2.20;99.90;;;;;;5060717;28;20087;-80
2024/01/02 03:17:04;;;;;;;18.20;10.88;;;2.20;99.90;;;;;;5054239;28;20459;-80
2024/01/02 03:19:30;;;;;;;21.17;11.02;;;2.20;99.90;;;;;;5064404;28;20375;-80
2024/01/02 03:21:56;;;;;;;27.23;11.00;;;2.20;99.90;;;;;;5076417;28;20138;-79
2024/01/02 03:24:21;;;;;;;22.05;10.85;;;2.10;99.90;;;;;;5064293;28;20099;-79
2024/01/02 03:26:47;;;;;;;21.75;12.18;;;2.10;99.90;;;;;;5076231;28;20028;-79
2024/01/02 03:29:13;;;;;;;17.73;9.88;;;2.10;99.90;;;;;;5058437;28;20019;-79
2024/01/02 03:31:38;;;;;;;20.48;9.63;;;2.10;99.90;;;;;;5058311;28;20016;-80
2024/01/02 03:34:04;;;;;;;16.80;9.48;;;2.10;99.90;;;;;;5062186;28;20043;-78
2024/01/02 03:36:29;;;;;;;21.58;10.30;;;2.10;99.90;;;;;;5058215;28;20050;-78
2024/01/02 03:38:55;;;;;;;22.13;9.80;;;2.10;99.90;;;;;;5058341;28;20386;-79
2024/01/02 03:41:21;;;;;;;16.55;9.57;;;2.10;99.90;;;;;;5058169;28;20066;-79
2024/01/02 03:43:46;;;;;;;17.17;10.48;;;2.10;99.90;;;;;;5063494;28;20070;-80
2024/01/02 03:46:12;;;;;;;18.83;9.88;;;2.10;99.90;;;;;;5057836;28;20106;-79
2024/01/02 03:48:38;;;;;;;23.58;10.07;;;2.10;99.90;;;;;;5057902;28;20020;-79
2024/01/02 03:51:04;;;;;;;22.20;9.52;;;2.00;99.90;;;;;;5057830;28;20024;-79
2024/01/02 03:53:30;;;;;;;20.90;10.05;;;2.00;99.90;;;;;;5057960;28;20033;-80
2024/01/02 03:55:56;;;;;;;24.58;10.52;;;2.00;99.90;;;;;;5057571;28;20074;-80
2024/01/02 03:58:22;;;;;;;22.70;10.48;;;2.00;99.90;;;;;;5062513;28;20012;-80
2024/01/02 04:00:50;;;;;;;21.60;9.13;;;2.10;99.90;;;;;;5057678;28;20024;-80
2024/01/02 04:03:15;;;;;;;20.95;8.40;;;2.10;99.90;;;;;;5044760;28;20012;-80
2024/01/02 04:05:41;;;;;;;20.08;9.60;;;2.00;99.90;;;;;;5057673;28;20035;-80
2024/01/02 04:08:07;;;;;;;14.88;9.07;;;2.00;99.90;;;;;;5062711;28;20062;-79
2024/01/02 04:10:34;;;;;;;21.52;10.38;;;2.00;99.90;;;;;;5075523;28;20056;-79
2024/01/02 04:13:00;;;;;;;24.70;10.00;;;2.00;99.90;;;;;;5062749;28;20020;-80
2024/01/02 04:15:26;;;;;;;19.60;9.70;;;2.00;99.90;;;;;;5075314;28;20407;-79
2024/01/02 04:17:52;;;;;;;17.38;9.05;;;2.00;99.90;;;;;;5057448;28;20103;-79
2024/01/02 04:20:17;;;;;;;21.25;8.27;;;2.00;99.90;;;;;;5057430;28;20031;-79
2024/01/02 04:22:43;;;;;;;19.00;9.40;;;2.00;99.90;;;;;;5057273;28;20025;-80
2024/01/02 04:25:09;;;;;;;21.05;10.73;;;2.00;99.90;;;;;;5075297;28;20028;-80
2024/01/02 04:27:35;;;;;;;22.17;11.38;;;2.00;99.90;;;;;;5057345;28;20024;-79
2024/01/02 04:30:00;;;;;;;18.48;10.90;;;2.00;99.90;;;;;;5057300;28;20028;-79
2024/01/02 04:32:26;;;;;;;15.93;8.15;;;2.00;99.90;;;;;;5075185;28;20075;-80
2024/01/02 04:34:51;;;;;;;16.60;8.43;;;1.90;99.90;;;;;;5074912;28;20039;-79
2024/01/02 04:37:17;;;;;;;18.52;9.75;;;2.00;99.90;;;;;;5057206;28;20031;-79
2024/01/02 04:39:44;;;;;;;16.42;9.05;;;1.90;99.90;;;;;;5057270;28;20044;-79
2024/01/02 04:42:10;;;;;;;20.63;9.18;;;2.00;99.90;;;;;;5072475;28;20058;-79
2024/01/02 04:44:36;;;;;;;20.35;8.93;;;1.90;99.90;;;;;;5056934;28;20024;-79
2024/01/02 04:47:02;;;;;;;16.90;9.27;;;1.90;99.90;;;;;;5044974;28;20035;-79
2024/01/02 04:49:28;;;;;;;15.50;8.80;;;2.00;99.90;;;;;;5074408;28;20020;-79
2024/01/02 04:51:54;;;;;;;15.60;8.88;;;2.00;99.90;;;;;;5074961;28;20074;-79
2024/01/02 04:54:20;;;;;;;17.60;9.10;;;2.00;99.90;;;;;;5056740;28;20035;-79
2024/01/02 04:56:45;;;;;;;17.65;8.30;;;2.00;99.90;;;;;;5044399;28;20472;-79
2024/01/02 04:59:11;;;;;;;16.10;6.95;;;1.90;99.90;;;;;;5074680;28;20103;-80
2024/01/02 05:01:37;;;;;;;18.95;8.98;;;2.00;99.90;;;;;;5074713;28;20502;-80
2024/01/02 05:04:04;;;;;;;14.55;7.88;;;2.00;99.90;;;;;;5056042;28;20025;-78
2024/01/02 05:06:30;;;;;;;17.38;7.80;;;2.00;99.90;;;;;;5056529;28;20101;-80
2024/01/02 05:08:56;;;;;;;23.88;9.10;;;2.00;99.90;;;;;;5056288;28;20107;-80
2024/01/02 05:11:22;;;;;;;17.73;7.78;;;2.00;99.90;;;;;;5056522;28;20424;-78
2024/01/02 05:13:48;;;;;;;18.27;8.25;;;1.90;99.90;;;;;;5056077;28;20020;-78
2024/01/02 05:16:14;;;;;;;14.73;7.43;;;2.00;99.90;;;;;;5056392;28;20024;-80
2024/01/02 05:18:40;;;;;;;15.18;8.07;;;1.90;99.90;;;;;;5055961;28;20054;-79
2024/01/02 05:21:07;;;;;;;13.27;8.13;;;1.90;99.90;;;;;;5056725;28;20031;-80
2024/01/02 05:23:33;;;;;;;19.05;7.90;;;1.90;99.90;;;;;;5054854;28;20032;-80
2024/01/02 05:25:58;;;;;;;15.70;7.88;;;2.00;99.90;;;;;;5074419;28;20039;-79
2024/01/02 05:28:24;;;;;;;12.90;7.63;;;1.90;99.90;;;;;;5055867;28;20470;-79
2024/01/02 05:30:50;;;;;;;16.90;8.95;;;1.90;99.90;;;;;;5073380;28;20394;-79
2024/01/02 05:33:15;;;;;;;17.50;8.70;;;1.90;99.90;;;;;;5055899;28;20553;-79
2024/01/02 05:35:41;;;;;;;17.60;9.10;;;1.90;99.90;;;;;;5056070;28;20024;-79
2024/01/02 05:38:07;;;;;;;14.80;8.90;;;1.90;99.90;;;;;;5055693;28;20024;-79
2024/01/02 05:40:32;;;;;;;17.48;8.57;;;1.90;99.90;;;;;;5055543;28;20029;-78
2024/01/02 05:42:58;;;;;;;22.35;11.00;;;1.90;99.90;;;;;;5073518;28;20067;-78
2024/01/02 05:45:24;;;;;;;20.02;10.23;;;1.90;99.90;;;;;;5055813;28;20118;-79
2024/01/02 05:47:49;;;;;;;23.45;11.38;;;1.90;99.90;;;;;;5055504;28;20027;-78
2024/01/02 05:50:15;;;;;;;18.35;8.82;;;1.90;99.90;;;;;;5055791;28;20527;-78
2024/01/02 05:52:44;;;;;;;14.85;7.78;;;1.90;99.90;;;;;;5073599;28;20039;-78
2024/01/02 05:55:10;;;;;;;17.13;8.32;;;1.90;99.90;;;;;;5043039;28;20112;-80
2024/01/02 05:57:35;;;;;;;15.27;8.43;;;1.90;99.90;;;;;;5055395;28;20109;-78
2024/01/02 06:00:01;;;;;;;12.60;8.48;;;1.90;99.90;;;;;;5073641;28;20040;-78
2024/01/02 06:02:27;;;;;;;13.00;7.68;;;1.90;99.90;;;;;;5072718;28;20017;-77
2024/01/02 06:04:52;;;;;;;18.98;8.30;;;1.90;99.90;;;;;;5055213;28;20104;-78
2024/01/02 06:07:18;;;;;;;18.27;9.65;;;1.90;99.90;;;;;;5054619;28;20037;-78
2024/01/02 06:09:44;;;;;;;17.58;8.35;;;1.90;99.90;;;;;;5072444;28;20394;-80
2024/01/02 06:12:09;;;;;;;16.45;8.65;;;1.90;99.90;;;;;;5054320;28;20377;-78
2024/01/02 06:14:35;;;;;;;24.05;9.75;;;2.00;99.90;;;;;;5054980;28;20382;-79
2024/01/02 06:17:03;;;;;;;17.95;9.23;;;1.90;99.90;;;;;;5055164;28;20052;-78
2024/01/02 06:19:28;;;;;;;23.08;9.60;;;1.90;99.90;;;;;;5053895;28;20528;-78
2024/01/02 06:21:55;;;;;;;17.05;8.60;;;1.90;99.90;;;;;;5072446;28;20028;-78
2024/01/02 06:24:20;;;;;;;16.95;8.02;;;1.90;99.90;;;;;;5055089;28;20021;-78
2024/01/02 06:26:46;;;;;;;15.32;8.55;;;2.00;99.90;;;;;;5054431;28;20529;-79
2024/01/02 06:29:12;;;;;;;15.40;9.48;;;2.00;99.90;;;;;;5054652;28;20012;-78
2024/01/02 06:31:37;;;;;;;17.88;8.57;;;2.00;99.90;;;;;;5054764;28;20486;-79
2024/01/02 06:34:03;;;;;;;14.30;8.30;;;2.00;99.90;;;;;;5073045;28;20040;-79
2024/01/02 06:36:29;;;;;;;16.75;8.55;;;2.00;99.90;;;;;;5054487;28;20028;-78
2024/01/02 06:38:54;;;;;;;17.50;8.05;;;1.90;99.90;;;;;;5048041;28;20020;-79
2024/01/02 06:41:20;;;;;;;16.80;7.75;;;1.90;99.90;;;;;;5048072;28;20047;-79
2024/01/02 06:43:45;;;;;;;14.55;6.93;;;1.90;99.90;;;;;;5054547;28;20024;-76
2024/01/02 06:46:12;;;;;;;15.73;7.30;;;1.90;99.90;;;;;;5072441;28;20035;-78
2024/01/02 06:48:39;;;;;;;14.02;7.75;;;1.90;99.90;;;;;;5054513;28;20054;-79
2024/01/02 06:51:05;;;;;;;13.88;7.07;;;1.90;99.90;;;;;;5054805;28;20189;-78
2024/01/02 06:53:30;;;;;;;8.70;6.63;;;2.00;99.90;;;;;;5053533;28;20584;-78
2024/01/02 06:55:56;;;;;;;14.00;7.25;;;2.00;99.90;;;;;;5054038;28;20017;-79
2024/01/02 06:58:22;;;;;;;14.55;6.63;;;2.00;99.90;;;;;;5052202;28;20493;-80
2024/01/02 07:00:48;;;;;;;14.15;6.75;;;2.00;99.90;;;;;;5072745;28;20078;-78
2024/01/02 07:03:13;;;;;;;11.95;6.43;;;2.00;99.90;;;;;;5053947;28;20462;-79
2024/01/02 07:05:39;;;;;;;15.48;6.35;;;2.00;99.90;;;;;;5055397;28;20478;-79
2024/01/02 07:08:05;;;;;;;11.13;6.72;;;2.00;99.90;;;;;;5071259;28;20044;-80
2024/01/02 07:10:31;;;;;;;13.30;6.65;;;2.00;99.90;;;;;;5071972;28;20379;-79
2024/01/02 07:12:56;;;;;;;16.65;6.40;;;2.00;99.90;;;;;;5054148;28;20417;-78
2024/01/02 07:15:22;;;;;;;15.63;6.85;;;2.00;99.90;;;;;;5054455;28;20423;-79
2024/01/02 07:17:48;;;;;;;12.00;6.70;;;2.00;99.90;;;;;;5053186;28;20031;-79
2024/01/02 07:20:14;;;;;;;11.43;6.50;;;2.00;99.90;;;;;;5054097;28;20474;-79
2024/01/02 07:22:39;;;;;;;13.25;7.00;;;2.00;99.90;;;;;;5052794;28;20050;-79
2024/01/02 07:25:05;;;;;;;14.13;5.70;;;2.00;99.90;;;;;;5052325;28;20024;-79
2024/01/02 07:27:31;;;;;;;14.07;6.25;;;1.90;99.90;;;;;;5052349;28;20040;-79
2024/01/02 07:29:57;;;;;;;20.83;6.53;;;2.00;99.90;;;;;;5070459;28;20024;-79
2024/01/02 07:32:22;;;;;;;15.82;6.93;;;2.00;99.90;;;;;;5050662;28;20544;-79
2024/01/02 07:34:48;;;;;;;14.88;6.70;;;2.00;99.90;;;;;;5068511;28;20036;-79
2024/01/02 07:37:14;;;;;;;9.23;5.95;;;2.00;99.90;;;;;;5050557;28;20013;-79
2024/01/02 07:39:41;;;;;;;14.05;6.00;;;2.00;99.90;;;;;;5052143;28;20709;-79
2024/01/02 07:42:08;;;;;;;20.63;7.25;;;2.00;99.90;;;;;;5070000;28;20024;-79
2024/01/02 07:44:34;;;;;;;12.52;6.28;;;2.00;99.90;;;;;;5052076;28;20390;-79
2024/01/02 07:47:01;;;;;;;12.95;6.18;;;2.00;99.90;;;;;;5053291;28;20029;-79
2024/01/02 07:49:27;;;;;;;14.02;5.93;;;2.00;99.90;;;;;;5053791;28;20059;-79
2024/01/02 07:51:54;;;;;;;14.15;6.15;;;2.00;99.90;;;;;;5054166;28;20013;-80
2024/01/02 07:54:20;;;;;;;14.05;6.50;;;2.00;99.90;;;;;;5070653;28;20082;-79
2024/01/02 07:56:45;;;;;;;13.40;6.35;;;2.00;99.90;;;;;;5072076;28;20020;-79
2024/01/02 07:59:15;;;;;;;11.88;5.78;;;2.00;99.90;;;;;;5071881;28;20052;-79
2024/01/02 08:01:41;;;;;;;15.07;6.57;;;2.00;99.90;;;;;;5054035;28;20473;-79
2024/01/02 08:04:06;;;;;;;11.38;6.65;;;2.00;99.90;;;;;;5073629;28;20021;-79
2024/01/02 08:06:32;;;;;;;13.23;6.07;;;2.10;99.90;;;;;;5057733;28;20032;-79
2024/01/02 08:08:58;;;;;;;12.30;6.68;;;2.10;99.90;;;;;;5057154;28;20112;-78
2024/01/02 08:11:23;;;;;;;18.33;7.15;;;2.10;99.90;;;;;;5057781;28;20028;-79
2024/01/02 08:13:49;;;;;;;19.45;6.88;;;2.10;99.90;;;;;;5075184;28;20406;-79
2024/01/02 08:16:14;;;;;;;15.48;6.10;;;2.10;99.90;;;;;;5074347;28;20398;-79
2024/01/02 08:18:41;;;;;;;15.88;6.82;;;2.10;99.90;;;;;;5057076;28;20024;-79
2024/01/02 08:21:07;;;;;;;16.55;7.45;;;2.10;99.90;;;;;;5057456;28;20049;-79
2024/01/02 08:23:38;;;;;;;11.65;6.93;;;2.10;99.90;;;;;;5057148;28;20025;-79
2024/01/02 08:26:06;;;;;;;16.92;8.55;;;2.10;99.90;;;;;;5057363;28;20497;-79
2024/01/02 08:28:31;;;;;;;20.65;7.68;;;2.10;99.90;;;;;;5075011;28;20024;-79
2024/01/02 08:30:57;;;;;;;16.52;7.85;;;2.20;99.90;;;;;;5057253;28;20029;-79
2024/01/02 08:33:22;;;;;;;14.95;7.40;;;2.10;99.90;;;;;;5057034;28;20418;-79
2024/01/02 08:35:48;;;;;;;17.70;7.80;;;2.20;99.90;;;;;;5062894;28;20016;-80
2024/01/02 08:38:13;;;;;;;18.25;7.80;;;2.20;99.90;;;;;;5056577;28;20016;-79
2024/01/02 08:40:39;;;;;;;17.33;7.80;;;2.30;99.90;;;;;;5074805;28;20032;-79
2024/01/02 08:43:05;;;;;;;15.98;7.05;;;2.40;99.90;;;;;;5074797;28;20021;-79
2024/01/02 08:45:30;;;;;;;15.55;7.30;;;2.40;99.90;;;;;;5056710;28;20542;-79
2024/01/02 08:47:56;;;;;;;15.35;6.57;;;2.40;99.90;;;;;;5056537;28;20398;-79
2024/01/02 08:50:22;;;;;;;12.73;6.53;;;2.50;99.90;;;;;;5057132;28;20027;-79
2024/01/02 08:52:49;;;;;;;12.52;6.55;;;2.60;99.90;;;;;;5056561;28;20027;-79
2024/01/02 08:55:15;;;;;;;19.05;7.63;;;2.60;99.90;;;;;;5057040;28;20103;-79
2024/01/02 08:57:40;;;;;;;19.88;8.07;;;2.70;99.90;;;;;;5056639;28;20137;-79
2024/01/02 09:00:07;;;;;;;12.20;7.68;;;2.70;99.90;;;;;;5074857;28;20078;-79
2024/01/02 09:02:33;;;;;;;15.18;7.88;;;2.80;99.90;;;;;;5074429;28;20047;-79
2024/01/02 09:04:59;;;;;;;21.35;7.22;;;2.80;99.90;;;;;;5074929;28;20043;-79
2024/01/02 09:07:25;;;;;;;15.65;7.45;;;2.80;99.90;;;;;;5055775;28;20044;-79
2024/01/02 09:09:50;;;;;;;13.48;7.68;;;2.90;99.90;;;;;;5074241;28;20100;-79
2024/01/02 09:12:16;;;;;;;13.40;7.40;;;2.90;99.90;;;;;;5056439;28;20028;-79
2024/01/02 09:14:41;;;;;;;16.75;6.70;;;3.00;99.90;;;;;;5055808;28;20115;-79
2024/01/02 09:17:08;;;;;;;20.45;8.50;;;3.00;99.90;;;;;;5055694;28;20017;-80
2024/01/02 09:19:33;;;;;;;12.95;6.35;;;3.10;99.90;;;;;;5074407;28;20024;-79
2024/01/02 09:21:59;;;;;;;11.43;6.40;;;3.10;99.90;;;;;;5056222;28;20017;-79
2024/01/02 09:24:25;;;;;;;15.32;6.60;;;3.20;99.90;;;;;;5074359;28;20028;-79
2024/01/02 09:26:54;;;;;;;12.63;6.85;;;3.30;99.90;;;;;;5055714;28;20139;-79
2024/01/02 09:29:21;;;;;;;13.20;6.10;;;3.30;99.90;;;;;;5056398;28;20020;-79
2024/01/02 09:31:47;;;;;;;13.30;5.60;;;3.40;99.90;;;;;;5073873;28;20367;-79
2024/01/02 09:34:13;;;;;;;13.30;5.63;;;3.40;99.90;;;;;;5036247;28;20051;-79
2024/01/02 09:36:39;;;;;;;11.50;4.65;;;3.50;99.90;;;;;;5035709;28;20112;-79
2024/01/02 09:39:06;;;;;;;16.75;5.47;;;3.50;99.90;;;;;;5035975;28;20017;-78
2024/01/02 09:41:43;;;;;;;11.32;5.55;;;3.60;99.90;;;;;;5053663;28;20025;-79
2024/01/02 09:44:15;;;;;;;9.30;5.15;;;3.60;99.90;;;;;;5036122;28;20035;-79
2024/01/02 09:46:53;;;;;;;9.68;5.00;;;3.70;99.90;;;;;;5035910;28;20041;-79
2024/01/02 09:49:29;;;;;;;14.18;5.70;;;3.70;99.90;;;;;;5035574;28;20021;-79
2024/01/02 09:52:20;;;;;;;13.93;6.22;;;3.70;99.90;;;;;;5035700;28;20029;-79
2024/01/02 09:54:50;;;;;;;15.15;6.82;;;3.80;99.90;;;;;;5052992;28;20025;-79
2024/01/02 09:57:46;;;;;;;17.95;5.50;;;3.90;99.90;;;;;;5035566;28;20029;-80
2024/01/02 10:00:33;;;;;;;10.20;6.13;;;3.90;99.90;;;;;;5031664;28;20024;-79
2024/01/02 10:03:09;;;;;;;14.57;5.45;;;4.00;99.90;;;;;;5035090;28;20474;-79
2024/01/02 10:05:57;;;;;;;15.18;5.82;;;4.00;99.90;;;;;;5034895;28;20033;-79
2024/01/02 10:08:47;;;;;;;13.15;5.38;;;4.10;99.90;;;;;;5052968;28;20133;-79
2024/01/02 10:11:23;;;;;;;8.05;5.18;;;4.10;99.90;;;;;;5053296;28;20474;-79
2024/01/02 10:13:59;;;;;;;15.20;5.90;;;4.20;99.90;;;;;;5045188;28;20022;-78
2024/01/02 10:16:41;;;;;;;14.35;4.95;;;4.20;99.90;;;;;;5048734;28;20029;-78
2024/01/02 10:19:25;;;;;;;11.77;4.47;;;4.20;99.90;;;;;;5035159;28;20021;-78
2024/01/02 10:22:13;;;;;;;10.95;5.18;;;4.20;99.90;;;;;;5033594;28;20025;-79
2024/01/02 10:24:48;;;;;;;11.10;5.57;;;4.30;99.90;;;;;;5051513;28;20429;-78
2024/01/02 10:27:41;;;;;;;14.02;5.05;;;4.30;99.90;;;;;;5034224;28;20064;-78
2024/01/02 10:30:11;;;;;;;13.50;4.20;;;4.40;99.90;;;;;;5020423;28;20063;-77
2024/01/02 10:32:47;;;;;;;10.77;4.88;;;4.40;99.90;;;;;;5058554;28;20043;-78
2024/01/02 10:35:19;;;;;;;12.35;4.45;;;4.40;99.90;;;;;;5072497;28;20470;-78
2024/01/02 10:38:08;;;;;;;16.35;6.35;;;4.50;99.90;;;;;;5070858;28;20021;-78
2024/01/02 10:40:39;;;;;;;9.23;4.50;;;4.60;99.90;;;;;;5051170;28;20417;-78
2024/01/02 10:43:18;;;;;;;13.38;4.30;;;4.50;99.90;;;;;;5048815;28;20064;-78
2024/01/02 10:46:02;;;;;;;7.10;4.68;;;4.60;99.90;;;;;;5072547;28;20040;-78
2024/01/02 10:48:40;;;;;;;11.30;4.25;;;4.60;99.90;;;;;;5073091;28;20498;-78
2024/01/02 10:51:08;;;;;;;8.40;3.53;;;4.60;99.90;;;;;;5052374;28;20475;-77
2024/01/02 10:53:42;;;;;;;13.05;4.80;;;4.60;99.90;;;;;;5051739;28;20168;-77
2024/01/02 10:56:13;;;;;;;9.23;4.40;;;4.60;99.90;;;;;;5065834;28;20020;-77
2024/01/02 10:59:03;;;;;;;12.70;4.53;;;4.70;99.90;;;;;;5071448;28;20500;-77
2024/01/02 11:01:32;;;;;;;12.98;5.22;;;4.80;99.90;;;;;;5054146;28;20028;-77
2024/01/02 11:04:21;;;;;;;9.30;4.25;;;4.80;99.90;;;;;;5054118;28;20020;-77
2024/01/02 11:07:04;;;;;;;8.50;4.00;;;4.90;99.90;;;;;;5053333;28;20032;-77
2024/01/02 11:10:02;;;;;;;9.02;3.80;;;4.90;99.90;;;;;;5048271;28;20029;-77
2024/01/02 11:12:46;;;;;;;8.27;4.03;;;5.00;99.90;;;;;;5071417;28;20033;-78
2024/01/02 11:15:14;;;;;;;11.23;4.57;;;5.00;99.90;;;;;;5070120;28;20021;-78
2024/01/02 11:17:42;;;;;;;12.00;5.20;;;5.10;99.90;;;;;;5071470;28;20103;-78
2024/01/02 11:20:14;;;;;;;15.68;5.20;;;5.10;99.90;;;;;;5054044;28;20453;-78
2024/01/02 11:23:06;;;;;;;8.27;4.65;;;5.10;99.90;;;;;;5071504;28;20482;-79
2024/01/02 11:25:36;;;;;;;9.68;4.47;;;5.20;99.90;;;;;;5053024;28;20119;-78
2024/01/02 11:28:05;;;;;;;13.43;4.60;;;5.20;99.90;;;;;;5053660;28;20056;-79
2024/01/02 11:30:34;;;;;;;9.80;4.55;;;5.20;99.90;;;;;;5053369;28;20029;-80
2024/01/02 11:33:18;;;;;;;14.48;5.05;;;5.20;99.90;;;;;;5050635;28;20509;-78
2024/01/02 11:35:54;;;;;;;8.07;4.15;;;5.30;99.90;;;;;;5065926;28;20465;-79
2024/01/02 11:38:27;;;;;;;10.95;4.38;;;5.40;99.90;;;;;;5052406;28;20025;-77
2024/01/02 11:41:00;;;;;;;10.73;4.90;;;5.30;99.90;;;;;;5071180;28;20051;-78
2024/01/02 11:43:41;;;;;;;12.90;5.82;;;5.30;99.90;;;;;;5070861;28;20029;-78
2024/01/02 11:46:07;;;;;;;15.00;4.85;;;5.30;99.90;;;;;;5051766;28;20048;-78
2024/01/02 11:48:57;;;;;;;8.82;5.30;;;5.40;99.90;;;;;;5075015;28;20025;-80
2024/01/02 11:51:27;;;;;;;18.20;5.97;;;5.40;99.90;;;;;;5073017;28;20028;-77
2024/01/02 11:54:30;;;;;;;12.77;5.13;;;5.40;99.90;;;;;;5070474;28;20078;-77
2024/01/02 11:56:57;;;;;;;14.25;5.32;;;5.40;99.90;;;;;;5044924;28;20020;-77
2024/01/02 11:59:37;;;;;;;16.27;6.07;;;5.40;99.90;;;;;;5075423;28;20040;-76
2024/01/02 12:02:08;;;;;;;14.20;7.38;;;5.40;99.90;;;;;;5074603;28;20081;-76
2024/01/02 12:04:58;;;;;;;16.77;6.65;;;5.50;99.90;;;;;;5057231;28;20017;-76
2024/01/02 12:07:31;;;;;;;15.50;6.45;;;5.50;99.90;;;;;;5064744;28;20045;-77
2024/01/02 12:09:57;;;;;;;8.95;5.70;;;5.50;99.90;;;;;;5056399;28;20028;-76
2024/01/02 12:12:45;;;;;;;12.35;5.90;;;5.50;99.90;;;;;;5056796;28;20466;-76
2024/01/02 12:15:10;;;;;;;15.07;7.47;;;5.50;99.90;;;;;;5056287;28;20040;-76
2024/01/02 12:17:56;;;;;;;32.30;16.77;;;5.50;99.90;;;;;;5055482;28;20405;-77
2024/01/02 12:20:24;;;;;;;15.35;6.53;;;5.50;99.90;;;;;;5051359;28;20036;-79
2024/01/02 12:22:50;;;;;;;18.65;7.65;;;5.50;99.90;;;;;;5056374;28;20458;-77
2024/01/02 12:25:16;;;;;;;17.67;8.73;;;5.50;99.90;;;;;;5056574;28;20028;-79
2024/01/02 12:27:45;;;;;;;25.38;11.98;;;5.60;99.90;;;;;;5073084;28;20044;-79
2024/01/02 12:30:21;;;;;;;26.88;12.63;;;5.60;99.90;;;;;;5055972;28;20028;-78
2024/01/02 12:33:04;;;;;;;47.65;25.90;;;5.60;99.90;;;;;;5048675;28;20487;-76
2024/01/02 12:35:52;;;;;;;35.47;14.90;;;5.60;99.90;;;;;;5035740;28;20045;-78
2024/01/02 12:38:23;;;;;;;42.17;23.20;;;5.60;99.90;;;;;;5053097;28;20112;-76
2024/01/02 12:40:51;;;;;;;25.33;9.70;;;5.60;99.90;;;;;;5034274;28;20475;-78
2024/01/02 12:43:23;;;;;;;27.02;13.70;;;5.60;99.90;;;;;;5037547;28;20079;-80
2024/01/02 12:46:02;;;;;;;24.55;13.20;;;5.60;99.90;;;;;;5042011;28;20087;-79
2024/01/02 12:48:34;;;;;;;34.40;17.23;;;5.60;99.90;;;;;;5054312;28;20024;-78
2024/01/02 12:51:00;;;;;;;45.80;21.98;;;5.60;99.90;;;;;;5035337;28;20369;-78
2024/01/02 12:53:33;;;;;;;56.55;25.38;;;5.60;99.90;;;;;;5049729;28;20024;-79